createdAt,value
2022-12-08T00:08:37.551Z,30.99
2022-12-08T00:18:47.965Z,29.76
2022-12-08T00:28:56.391Z,30.71
2022-12-08T00:39:04.706Z,26.63
2022-12-08T00:49:13.024Z,30.97
2022-12-08T00:59:21.169Z,32.75
2022-12-08T01:09:30.548Z,31.49
2022-12-08T01:19:38.923Z,29.81
2022-12-08T01:29:47.236Z,30.74
2022-12-08T01:39:55.454Z,31.44
2022-12-08T01:50:03.775Z,28.96
2022-12-08T02:00:10.632Z,30.34
2022-12-08T02:10:19.320Z,29.04
2022-12-08T02:20:27.907Z,27.07
2022-12-08T02:30:36.213Z,29.38
2022-12-08T02:40:44.345Z,29.76
2022-12-08T02:50:52.651Z,26.32
2022-12-08T03:01:00.764Z,27.86
2022-12-08T03:11:09.005Z,29.26
2022-12-08T03:21:17.023Z,31.24
2022-12-08T03:31:25.301Z,30.92
2022-12-08T03:41:33.459Z,30.69
2022-12-08T03:51:41.654Z,30.75
2022-12-08T04:01:50.260Z,31.3
2022-12-08T04:11:58.483Z,29.8
2022-12-08T04:22:06.895Z,29.66
2022-12-08T04:32:15.126Z,30.62
2022-12-08T04:42:26.209Z,29.3
2022-12-08T04:52:25.692Z,29.04
2022-12-08T05:02:36.352Z,33.57
2022-12-08T05:12:37.023Z,29.76
2022-12-08T05:22:35.253Z,31.78
2022-12-08T05:32:43.412Z,31.64
2022-12-08T05:42:51.635Z,29.08
2022-12-08T05:52:59.774Z,30.02
2022-12-08T06:03:08.074Z,32.43
2022-12-08T06:13:16.190Z,33.96
2022-12-08T06:23:25.230Z,32.3
2022-12-08T06:33:34.652Z,34.55
2022-12-08T06:43:42.810Z,33.24
2022-12-08T06:53:50.862Z,34.47
2022-12-08T07:04:00.672Z,34.79
2022-12-08T07:14:09.016Z,35.84
2022-12-08T07:24:17.759Z,35.74
2022-12-08T07:34:25.913Z,39.31
2022-12-08T07:44:37.544Z,35.58
2022-12-08T07:54:36.679Z,36
2022-12-08T08:04:44.984Z,38.95
2022-12-08T08:14:53.461Z,36.4
2022-12-08T08:25:01.858Z,39.73
2022-12-08T08:35:10.180Z,33.84
2022-12-08T08:45:18.714Z,36
2022-12-08T08:55:30.187Z,43.86
2022-12-08T09:05:32.364Z,37.11
2022-12-08T09:15:30.727Z,35.44
2022-12-08T09:25:40.168Z,35.53
2022-12-08T09:35:48.825Z,37.02
2022-12-08T09:45:58.953Z,34.56
2022-12-08T09:56:07.022Z,41.66
2022-12-08T10:06:20.081Z,50.13
2022-12-08T10:16:24.375Z,47.05
2022-12-08T10:26:31.187Z,46.57
2022-12-08T10:36:29.598Z,43.73
2022-12-08T10:46:41.425Z,44.73
2022-12-08T11:06:41.838Z,42.27
2022-12-08T11:16:49.984Z,45.34
2022-12-08T11:27:07.848Z,46.31
2022-12-08T11:37:14.107Z,45.22
2022-12-08T11:57:19.048Z,46.9
2022-12-08T12:07:26.462Z,53.46
2022-12-08T12:17:30.642Z,54.4
2022-12-08T12:27:33.201Z,50.83
2022-12-08T12:37:36.548Z,49.38
2022-12-08T12:47:44.712Z,59.79
2022-12-08T12:57:52.757Z,61.44
2022-12-08T13:08:01.693Z,63.31
2022-12-08T13:18:09.919Z,67.14
2022-12-08T13:28:19.462Z,64.9
2022-12-08T13:38:27.624Z,59.79
2022-12-08T13:48:56.135Z,61.46
2022-12-08T13:58:42.537Z,61.06
2022-12-08T14:09:00.262Z,62.66
2022-12-08T14:18:57.194Z,69.65
2022-12-08T14:29:05.699Z,63.74
2022-12-08T14:39:13.955Z,63.36
2022-12-08T14:49:22.180Z,61.47
2022-12-08T14:59:30.516Z,59.95
2022-12-08T15:09:38.847Z,56.87
2022-12-08T15:19:46.942Z,58.18
2022-12-08T15:29:54.964Z,61.69
2022-12-08T15:40:03.620Z,62.87
2022-12-08T15:50:10.612Z,60.78
2022-12-08T16:00:43.620Z,78.4
2022-12-08T16:10:24.782Z,64.75
2022-12-08T16:20:58.857Z,62.78
2022-12-08T16:30:39.595Z,68.99
2022-12-08T16:40:48.112Z,63.91
2022-12-08T16:50:56.175Z,65.29
2022-12-08T17:01:04.378Z,66.27
2022-12-08T17:11:12.204Z,65.14
2022-12-08T17:21:20.950Z,68.01
2022-12-08T17:31:30.092Z,62.73
2022-12-08T17:41:38.644Z,65.07
2022-12-08T18:01:39.281Z,65.48
2022-12-08T18:11:47.841Z,67.34
2022-12-08T18:21:56.077Z,60.79
2022-12-08T18:32:04.519Z,67.44
2022-12-08T18:42:12.843Z,71.56
2022-12-08T18:52:27.030Z,86.16
2022-12-08T19:12:24.037Z,79.62
2022-12-08T19:22:32.409Z,87.88
2022-12-08T19:32:40.840Z,70.82
2022-12-08T19:42:49.142Z,68.75
2022-12-08T19:52:57.679Z,99.76
2022-12-08T20:03:06.185Z,74.59
2022-12-08T20:13:15.457Z,69.17
2022-12-08T20:23:25.575Z,64.8
2022-12-08T20:33:35.002Z,65.02
2022-12-08T20:43:44.172Z,79.41
2022-12-08T20:53:53.945Z,72.41
2022-12-08T21:04:06.182Z,71.21
2022-12-08T21:14:08.333Z,69.57
2022-12-08T21:24:17.225Z,73.89
2022-12-08T21:34:26.381Z,66.7
2022-12-08T21:44:40.867Z,68.55
2022-12-08T21:54:39.359Z,72.58
2022-12-08T22:04:48.913Z,75.06
2022-12-08T22:24:59.934Z,75.94
2022-12-08T22:34:59.979Z,72.7
2022-12-08T22:45:09.558Z,73.27
2022-12-08T22:55:19.956Z,71.14
2022-12-08T23:15:20.998Z,64.55
2022-12-08T23:25:29.874Z,64.33
2022-12-08T23:35:38.460Z,57.75
2022-12-08T23:45:47.154Z,59.88
2022-12-08T23:55:56.095Z,56.34
